1898 Major Hurricane NOT_NAMED (1898265N20294)


IBTrACS version v04r00. Visit IBTrACS website for data access.
Please direct all questions to the IBTrACS Q and A forum

Storm track - Intensity - Wind Radii - Intensity Data - Source Data - All data

Summary Information

Storm ID 1898265N20294
Start Sep 21 12Z
Max Intensity 125 kt (Sep 26 18Z), 948 mb (Sep 26 18Z)
End Sep 29 06Z
ATCF IDs
Track status Best track data.
Spur track This storm is a spur track associated with the main storm: 1898268N16302

Storm track plot

Map of storm track

Intensity plots

Map of storm track

Radial wind information

No radial wind information for this storm


Position and Intensity Table

BASIN ISO_TIME_________ NATURE LAT LON MLC WIND MLC PRES
degrees north degrees east kts mb
NA 1898-09-21 12:00:00 TS 19.70 -66.00 35
NA 15:00:00 TS 19.91 -66.11 37
NA 18:00:00 TS 20.10 -66.20 40
NA 21:00:00 TS 20.26 -66.26 45
NA 1898-09-22 00:00:00 TS 20.40 -66.30 50
NA 03:00:00 TS 20.55 -66.35 55
NA 06:00:00 TS 20.70 -66.40 60
NA 09:00:00 TS 20.87 -66.42 62
NA 12:00:00 TS 21.00 -66.50 65
NA 15:00:00 TS 21.02 -66.73 67
NA 18:00:00 TS 21.00 -67.00 70
NA 21:00:00 TS 21.00 -67.21 72
NA 1898-09-23 00:00:00 TS 21.00 -67.40 75
NA 03:00:00 TS 21.00 -67.60 77
NA 06:00:00 TS 21.00 -67.80 80
NA 09:00:00 TS 20.99 -68.00 80
NA 12:00:00 TS 21.00 -68.20 80
NA 15:00:00 TS 21.05 -68.40 80
NA 18:00:00 TS 21.10 -68.60 80 977
NA 21:00:00 TS 21.10 -68.80 80
NA 1898-09-24 00:00:00 TS 21.10 -69.00 80
NA 03:00:00 TS 21.15 -69.20 80
NA 06:00:00 TS 21.20 -69.40 80
NA 09:00:00 TS 21.18 -69.57 82
NA 12:00:00 TS 21.20 -69.80 85
NA 15:00:00 TS 21.36 -70.17 85
NA 18:00:00 TS 21.60 -70.60 85
NA 21:00:00 TS 21.84 -71.00 87
NA 1898-09-25 00:00:00 TS 22.10 -71.40 90
NA 03:00:00 TS 22.36 -71.80 90
NA 06:00:00 TS 22.60 -72.20 90
NA 09:00:00 TS 22.79 -72.60 92
NA 12:00:00 TS 23.00 -73.00 95
NA 15:00:00 TS 23.29 -73.40 97
NA 18:00:00 NR 23.60 -73.80 100
NA 21:00:00 NR 23.85 -74.20 102
NA 1898-09-26 00:00:00 NR 24.10 -74.60 105
NA 03:00:00 NR 24.40 -75.00 107
NA 06:00:00 NR 24.70 -75.40 110
NA 09:00:00 NR 24.96 -75.82 112
NA 12:00:00 NR 25.20 -76.20 115
NA 15:00:00 NR 25.41 -76.53 120
NA 18:00:00 NR 25.60 -76.80 125 948
NA 21:00:00 NR 25.82 -77.01 125
NA 1898-09-27 00:00:00 NR 26.00 -77.20 125
NA 03:00:00 NR 26.10 -77.40 125
NA 06:00:00 NR 25.90 -77.40 125
NA 09:00:00 NR 25.81 -77.31 125
NA 12:00:00 NR 25.80 -77.10 125 948
NA 15:00:00 NR 25.79 -76.72 122
NA 18:00:00 NR 25.80 -76.30 120
NA 21:00:00 NR 25.80 -76.01 117
NA 1898-09-28 00:00:00 NR 25.80 -75.80 115
NA 03:00:00 NR 25.80 -75.65 112
NA 06:00:00 NR 25.80 -75.50 110
NA 09:00:00 NR 25.80 -75.25 107
NA 12:00:00 NR 25.80 -75.00 105
NA 15:00:00 NR 25.78 -74.84 102
NA 18:00:00 NR 25.80 -74.70 100
NA 21:00:00 NR 25.91 -74.49 97
NA 1898-09-29 00:00:00 TS 26.00 -74.30 95
NA 03:00:00 TS 25.97 -74.22 92
NA 06:00:00 TS 25.90 -74.20 90

Source Information

Agency Information
USA
TOKYO
CMA
HKO
NEWDELHI
REUNION
BOM
NADI
WELLINGTON
DS824
TD9636
TD9635
NEUMANN
MLC

All available IBTrACS Data

SEASON BASIN SUBBASIN ISO_TIME_________ NATURE LAT LON DIST2LAND LANDFALL IFLAG USA SSHS MLC LAT MLC LON MLC CLASS MLC WIND MLC PRES STORM SPEED STORM DIR
Year degrees north degrees east km km 1 degrees north degrees east kts mb kts degrees
1898 NA NA 1898-09-21 12:00:00 TS 19.70 -66.00 145 145 _____________O -1 19.70 -66.00 TS 35 5 334
1898 NA NA 15:00:00 TS 19.91 -66.11 167 167 _____________P -1 19.91 -66.11 TS 37 4 335
1898 NA NA 18:00:00 TS 20.10 -66.20 190 190 _____________O -1 20.10 -66.20 TS 40 4 339
1898 NA NA 21:00:00 TS 20.26 -66.26 212 212 _____________P -1 20.26 -66.26 TS 45 3 343
1898 NA NA 1898-09-22 00:00:00 TS 20.40 -66.30 223 223 _____________O -1 20.40 -66.30 TS 50 3 343
1898 NA NA 03:00:00 TS 20.55 -66.35 246 234 _____________P -1 20.55 -66.35 TS 55 3 343
1898 NA NA 06:00:00 TS 20.70 -66.40 257 257 _____________O -1 20.70 -66.40 TS 60 3 349
1898 NA NA 09:00:00 TS 20.87 -66.42 279 279 _____________P -1 20.87 -66.42 TS 62 3 343
1898 NA NA 12:00:00 TS 21.00 -66.50 290 290 _____________O -1 21.00 -66.50 HU 65 3 298
1898 NA NA 15:00:00 TS 21.02 -66.73 290 290 _____________P -1 21.02 -66.73 HU 67 5 270
1898 NA NA 18:00:00 TS 21.00 -67.00 290 286 _____________O -1 21.00 -67.00 HU 70 4 267
1898 NA NA 21:00:00 TS 21.00 -67.21 286 274 _____________P -1 21.00 -67.21 HU 72 4 270
1898 NA NA 1898-09-23 00:00:00 TS 21.00 -67.40 274 260 _____________O -1 21.00 -67.40 HU 75 4 270
1898 NA NA 03:00:00 TS 21.00 -67.60 260 246 _____________P -1 21.00 -67.60 HU 77 4 270
1898 NA NA 06:00:00 TS 21.00 -67.80 246 233 _____________O -1 21.00 -67.80 HU 80 4 269
1898 NA NA 09:00:00 TS 20.99 -68.00 233 222 _____________P -1 20.99 -68.00 HU 80 4 270
1898 NA NA 12:00:00 TS 21.00 -68.20 222 212 _____________O -1 21.00 -68.20 HU 80 4 279
1898 NA NA 15:00:00 TS 21.05 -68.40 212 212 _____________P -1 21.05 -68.40 HU 80 4 285
1898 NA NA 18:00:00 TS 21.10 -68.60 214 207 _____________O -1 21.10 -68.60 HU 80 977 4 278
1898 NA NA 21:00:00 TS 21.10 -68.80 207 197 _____________P -1 21.10 -68.80 HU 80 4 270
1898 NA NA 1898-09-24 00:00:00 TS 21.10 -69.00 197 187 _____________O -1 21.10 -69.00 HU 80 4 278
1898 NA NA 03:00:00 TS 21.15 -69.20 187 187 _____________P -1 21.15 -69.20 HU 80 4 285
1898 NA NA 06:00:00 TS 21.20 -69.40 189 183 _____________O -1 21.20 -69.40 HU 80 3 275
1898 NA NA 09:00:00 TS 21.18 -69.57 183 177 _____________P -1 21.18 -69.57 HU 82 4 270
1898 NA NA 12:00:00 TS 21.20 -69.80 177 172 _____________O -1 21.20 -69.80 HU 85 6 288
1898 NA NA 15:00:00 TS 21.36 -70.17 183 181 _____________P -1 21.36 -70.17 HU 85 8 298
1898 NA NA 18:00:00 TS 21.60 -70.60 201 201 _____________O -1 21.60 -70.60 HU 85 9 302
1898 NA NA 21:00:00 TS 21.84 -71.00 217 193 _____________P -1 21.84 -71.00 HU 87 9 304
1898 NA NA 1898-09-25 00:00:00 TS 22.10 -71.40 193 174 _____________O -1 22.10 -71.40 HU 90 9 305
1898 NA NA 03:00:00 TS 22.36 -71.80 182 172 _____________P -1 22.36 -71.80 HU 90 9 304
1898 NA NA 06:00:00 TS 22.60 -72.20 176 172 _____________O -1 22.60 -72.20 HU 90 9 300
1898 NA NA 09:00:00 TS 22.79 -72.60 183 181 _____________P -1 22.79 -72.60 HU 92 8 298
1898 NA NA 12:00:00 TS 23.00 -73.00 201 201 _____________O -1 23.00 -73.00 HU 95 9 304
1898 NA NA 15:00:00 TS 23.29 -73.40 235 235 _____________P -1 23.29 -73.40 HU 97 10 309
1898 NA NA 18:00:00 NR 23.60 -73.80 275 275 _____________O -1 23.60 -73.80 MH 100 9 307
1898 NA NA 21:00:00 NR 23.85 -74.20 306 306 _____________P -1 23.85 -74.20 MH 102 9 304
1898 NA NA 1898-09-26 00:00:00 NR 24.10 -74.60 317 273 _____________O -1 24.10 -74.60 MH 105 9 307
1898 NA NA 03:00:00 NR 24.40 -75.00 273 233 _____________P -1 24.40 -75.00 MH 107 9 309
1898 NA NA 06:00:00 NR 24.70 -75.40 233 196 _____________O -1 24.70 -75.40 MH 110 9 307
1898 NA NA 09:00:00 NR 24.96 -75.82 199 170 _____________P -1 24.96 -75.82 MH 112 9 305
1898 NA NA 12:00:00 NR 25.20 -76.20 170 151 _____________O -1 25.20 -76.20 MH 115 8 304
1898 NA NA 15:00:00 NR 25.41 -76.53 151 132 _____________P -1 25.41 -76.53 MH 120 7 306
1898 NA NA 18:00:00 NR 25.60 -76.80 132 123 _____________O -1 25.60 -76.80 MH 125 948 6 313
1898 NA NA 21:00:00 NR 25.82 -77.01 127 127 _____________P -1 25.82 -77.01 MH 125 5 318
1898 NA NA 1898-09-27 00:00:00 NR 26.00 -77.20 128 122 _____________O -1 26.00 -77.20 MH 125 4 309
1898 NA NA 03:00:00 NR 26.10 -77.40 126 107 _____________O -1 26.10 -77.40 MH 125 2 241
1898 NA NA 06:00:00 NR 25.90 -77.40 107 98 _____________O -1 25.90 -77.40 MH 125 3 164
1898 NA NA 09:00:00 NR 25.81 -77.31 105 105 _____________P -1 25.81 -77.31 MH 125 3 110
1898 NA NA 12:00:00 NR 25.80 -77.10 119 119 _____________O -1 25.80 -77.10 MH 125 948 5 92
1898 NA NA 15:00:00 NR 25.79 -76.72 152 152 _____________P -1 25.79 -76.72 MH 122 7 90
1898 NA NA 18:00:00 NR 25.80 -76.30 187 187 _____________O -1 25.80 -76.30 MH 120 6 89
1898 NA NA 21:00:00 NR 25.80 -76.01 215 215 _____________P -1 25.80 -76.01 MH 117 5 90
1898 NA NA 1898-09-28 00:00:00 NR 25.80 -75.80 233 233 _____________O -1 25.80 -75.80 MH 115 3 90
1898 NA NA 03:00:00 NR 25.80 -75.65 251 242 _____________P -1 25.80 -75.65 MH 112 3 90
1898 NA NA 06:00:00 NR 25.80 -75.50 261 261 _____________O -1 25.80 -75.50 MH 110 4 90
1898 NA NA 09:00:00 NR 25.80 -75.25 288 279 _____________P -1 25.80 -75.25 MH 107 5 90
1898 NA NA 12:00:00 NR 25.80 -75.00 307 307 _____________O -1 25.80 -75.00 MH 105 4 92
1898 NA NA 15:00:00 NR 25.78 -74.84 325 325 _____________P -1 25.78 -74.84 MH 102 3 90
1898 NA NA 18:00:00 NR 25.80 -74.70 334 334 _____________O -1 25.80 -74.70 MH 100 3 69
1898 NA NA 21:00:00 NR 25.91 -74.49 357 357 _____________P -1 25.91 -74.49 MH 97 4 61
1898 NA NA 1898-09-29 00:00:00 TS 26.00 -74.30 380 380 _____________O -1 26.00 -74.30 HU 95 2 75
1898 NA NA 03:00:00 TS 25.97 -74.22 389 385 _____________P -1 25.98 -74.22 HU 92 1 140
1898 NA NA 06:00:00 TS 25.90 -74.20 385 _____________O -1 25.90 -74.20 HU 90 2 0